sensor_id;sensor_type;location;lat;lon;timestamp;temperature;humidity
83289;DHT22;73193;50.866;5.420;2023-11-22T00:00:21;8.90;65.60
83289;DHT22;73193;50.866;5.420;2023-11-22T00:01:52;8.80;65.70
83289;DHT22;73193;50.866;5.420;2023-11-22T00:03:22;8.90;65.70
83289;DHT22;73193;50.866;5.420;2023-11-22T00:04:55;8.90;65.80
83289;DHT22;73193;50.866;5.420;2023-11-22T00:06:25;8.90;65.60
83289;DHT22;73193;50.866;5.420;2023-11-22T00:07:57;9.00;65.40
83289;DHT22;73193;50.866;5.420;2023-11-22T00:09:28;9.00;65.40
83289;DHT22;73193;50.866;5.420;2023-11-22T00:10:59;8.90;65.70
83289;DHT22;73193;50.866;5.420;2023-11-22T00:12:29;9.00;65.30
83289;DHT22;73193;50.866;5.420;2023-11-22T00:14:20;9.00;65.40
83289;DHT22;73193;50.866;5.420;2023-11-22T00:15:51;9.00;65.30
83289;DHT22;73193;50.866;5.420;2023-11-22T00:17:22;9.00;65.40
83289;DHT22;73193;50.866;5.420;2023-11-22T00:18:55;8.90;65.20
83289;DHT22;73193;50.866;5.420;2023-11-22T00:20:26;8.80;65.60
83289;DHT22;73193;50.866;5.420;2023-11-22T00:21:57;8.60;66.10
83289;DHT22;73193;50.866;5.420;2023-11-22T00:23:28;8.60;65.80
83289;DHT22;73193;50.866;5.420;2023-11-22T00:25:03;8.60;65.80
83289;DHT22;73193;50.866;5.420;2023-11-22T00:26:34;8.50;65.90
83289;DHT22;73193;50.866;5.420;2023-11-22T00:28:05;8.50;65.80
83289;DHT22;73193;50.866;5.420;2023-11-22T00:29:37;8.50;65.90
83289;DHT22;73193;50.866;5.420;2023-11-22T00:31:08;8.50;66.00
83289;DHT22;73193;50.866;5.420;2023-11-22T00:32:38;8.50;65.70
83289;DHT22;73193;50.866;5.420;2023-11-22T00:34:11;8.50;65.70
83289;DHT22;73193;50.866;5.420;2023-11-22T00:35:41;8.40;65.60
83289;DHT22;73193;50.866;5.420;2023-11-22T00:37:12;8.30;66.00
83289;DHT22;73193;50.866;5.420;2023-11-22T00:38:43;8.40;65.50
83289;DHT22;73193;50.866;5.420;2023-11-22T00:40:14;8.40;65.60
83289;DHT22;73193;50.866;5.420;2023-11-22T00:41:45;8.20;66.10
83289;DHT22;73193;50.866;5.420;2023-11-22T00:43:15;8.20;66.10
83289;DHT22;73193;50.866;5.420;2023-11-22T00:44:46;8.30;65.70
83289;DHT22;73193;50.866;5.420;2023-11-22T00:46:18;8.30;65.30
83289;DHT22;73193;50.866;5.420;2023-11-22T00:47:48;8.20;65.70
83289;DHT22;73193;50.866;5.420;2023-11-22T00:49:20;8.20;65.60
83289;DHT22;73193;50.866;5.420;2023-11-22T00:50:51;8.30;65.30
83289;DHT22;73193;50.866;5.420;2023-11-22T00:52:21;8.20;65.30
83289;DHT22;73193;50.866;5.420;2023-11-22T00:53:52;8.20;65.30
83289;DHT22;73193;50.866;5.420;2023-11-22T00:55:23;8.20;64.80
83289;DHT22;73193;50.866;5.420;2023-11-22T00:56:53;8.30;64.80
83289;DHT22;73193;50.866;5.420;2023-11-22T00:58:24;8.10;65.20
83289;DHT22;73193;50.866;5.420;2023-11-22T00:59:55;8.10;65.10
83289;DHT22;73193;50.866;5.420;2023-11-22T01:01:26;8.10;65.10
83289;DHT22;73193;50.866;5.420;2023-11-22T01:02:56;8.10;65.00
83289;DHT22;73193;50.866;5.420;2023-11-22T01:04:27;8.10;64.80
83289;DHT22;73193;50.866;5.420;2023-11-22T01:05:58;8.10;64.50
83289;DHT22;73193;50.866;5.420;2023-11-22T01:07:29;8.10;64.50
83289;DHT22;73193;50.866;5.420;2023-11-22T01:08:59;8.00;64.80
83289;DHT22;73193;50.866;5.420;2023-11-22T01:10:30;7.90;65.30
83289;DHT22;73193;50.866;5.420;2023-11-22T01:12:01;7.90;65.30
83289;DHT22;73193;50.866;5.420;2023-11-22T01:13:32;8.00;64.60
83289;DHT22;73193;50.866;5.420;2023-11-22T01:15:03;8.00;64.00
83289;DHT22;73193;50.866;5.420;2023-11-22T01:16:36;8.00;64.00
83289;DHT22;73193;50.866;5.420;2023-11-22T01:18:07;8.00;64.10
83289;DHT22;73193;50.866;5.420;2023-11-22T01:19:38;7.90;64.10
83289;DHT22;73193;50.866;5.420;2023-11-22T01:21:09;7.90;64.00
83289;DHT22;73193;50.866;5.420;2023-11-22T01:22:39;7.90;63.90
83289;DHT22;73193;50.866;5.420;2023-11-22T01:24:10;7.90;63.70
83289;DHT22;73193;50.866;5.420;2023-11-22T01:25:41;7.80;63.80
83289;DHT22;73193;50.866;5.420;2023-11-22T01:27:12;7.80;64.30
83289;DHT22;73193;50.866;5.420;2023-11-22T01:28:42;7.60;64.50
83289;DHT22;73193;50.866;5.420;2023-11-22T01:30:15;7.50;64.50
83289;DHT22;73193;50.866;5.420;2023-11-22T01:31:45;7.40;65.20
83289;DHT22;73193;50.866;5.420;2023-11-22T01:33:16;7.40;65.00
83289;DHT22;73193;50.866;5.420;2023-11-22T01:34:47;7.40;65.40
83289;DHT22;73193;50.866;5.420;2023-11-22T01:36:18;7.40;65.00
83289;DHT22;73193;50.866;5.420;2023-11-22T01:37:49;7.40;65.30
83289;DHT22;73193;50.866;5.420;2023-11-22T01:39:19;7.20;66.30
83289;DHT22;73193;50.866;5.420;2023-11-22T01:40:51;7.10;66.80
83289;DHT22;73193;50.866;5.420;2023-11-22T01:42:22;7.20;66.90
83289;DHT22;73193;50.866;5.420;2023-11-22T01:43:54;7.20;66.50
83289;DHT22;73193;50.866;5.420;2023-11-22T01:45:25;7.20;66.80
83289;DHT22;73193;50.866;5.420;2023-11-22T01:46:56;7.20;66.90
83289;DHT22;73193;50.866;5.420;2023-11-22T01:48:27;7.20;66.90
83289;DHT22;73193;50.866;5.420;2023-11-22T01:49:58;7.20;67.40
83289;DHT22;73193;50.866;5.420;2023-11-22T01:51:29;7.20;67.50
83289;DHT22;73193;50.866;5.420;2023-11-22T01:53:00;7.20;67.60
83289;DHT22;73193;50.866;5.420;2023-11-22T01:54:32;7.20;67.30
83289;DHT22;73193;50.866;5.420;2023-11-22T01:56:02;7.20;67.60
83289;DHT22;73193;50.866;5.420;2023-11-22T01:57:33;7.40;67.50
83289;DHT22;73193;50.866;5.420;2023-11-22T01:59:07;7.50;67.00
83289;DHT22;73193;50.866;5.420;2023-11-22T02:00:58;7.50;66.50
83289;DHT22;73193;50.866;5.420;2023-11-22T02:02:30;7.50;67.20
83289;DHT22;73193;50.866;5.420;2023-11-22T02:04:01;7.50;67.10
83289;DHT22;73193;50.866;5.420;2023-11-22T02:05:32;7.40;67.10
83289;DHT22;73193;50.866;5.420;2023-11-22T02:07:04;7.40;67.50
83289;DHT22;73193;50.866;5.420;2023-11-22T02:08:35;7.40;67.50
83289;DHT22;73193;50.866;5.420;2023-11-22T02:10:07;7.40;67.60
83289;DHT22;73193;50.866;5.420;2023-11-22T02:11:38;7.50;67.30
83289;DHT22;73193;50.866;5.420;2023-11-22T02:13:09;7.50;67.10
83289;DHT22;73193;50.866;5.420;2023-11-22T02:14:40;7.50;67.20
83289;DHT22;73193;50.866;5.420;2023-11-22T02:16:11;7.50;67.30
83289;DHT22;73193;50.866;5.420;2023-11-22T02:17:41;7.60;67.20
83289;DHT22;73193;50.866;5.420;2023-11-22T02:19:16;7.60;67.00
83289;DHT22;73193;50.866;5.420;2023-11-22T02:20:47;7.50;67.20
83289;DHT22;73193;50.866;5.420;2023-11-22T02:22:17;7.40;67.90
83289;DHT22;73193;50.866;5.420;2023-11-22T02:23:48;7.50;67.60
83289;DHT22;73193;50.866;5.420;2023-11-22T02:25:19;7.50;67.40
83289;DHT22;73193;50.866;5.420;2023-11-22T02:26:50;7.50;67.50
83289;DHT22;73193;50.866;5.420;2023-11-22T02:28:21;7.40;67.70
83289;DHT22;73193;50.866;5.420;2023-11-22T02:29:52;7.30;67.80
83289;DHT22;73193;50.866;5.420;2023-11-22T02:31:22;7.10;68.40
83289;DHT22;73193;50.866;5.420;2023-11-22T02:32:54;7.20;68.50
83289;DHT22;73193;50.866;5.420;2023-11-22T02:34:24;7.40;68.00
83289;DHT22;73193;50.866;5.420;2023-11-22T02:35:55;7.60;67.50
83289;DHT22;73193;50.866;5.420;2023-11-22T02:37:27;7.80;67.10
83289;DHT22;73193;50.866;5.420;2023-11-22T02:38:57;7.60;67.10
83289;DHT22;73193;50.866;5.420;2023-11-22T02:40:28;7.50;67.00
83289;DHT22;73193;50.866;5.420;2023-11-22T02:41:59;7.50;67.60
83289;DHT22;73193;50.866;5.420;2023-11-22T02:43:31;7.50;67.40
83289;DHT22;73193;50.866;5.420;2023-11-22T02:45:02;7.50;67.20
83289;DHT22;73193;50.866;5.420;2023-11-22T02:46:33;7.50;67.50
83289;DHT22;73193;50.866;5.420;2023-11-22T02:48:04;7.60;67.10
83289;DHT22;73193;50.866;5.420;2023-11-22T02:49:35;7.60;67.20
83289;DHT22;73193;50.866;5.420;2023-11-22T02:51:05;7.70;67.20
83289;DHT22;73193;50.866;5.420;2023-11-22T02:52:37;7.80;67.00
83289;DHT22;73193;50.866;5.420;2023-11-22T02:54:08;7.80;66.90
83289;DHT22;73193;50.866;5.420;2023-11-22T02:55:38;7.80;67.00
83289;DHT22;73193;50.866;5.420;2023-11-22T02:57:09;7.80;66.70
83289;DHT22;73193;50.866;5.420;2023-11-22T02:58:41;7.90;66.70
83289;DHT22;73193;50.866;5.420;2023-11-22T03:00:12;8.00;66.30
83289;DHT22;73193;50.866;5.420;2023-11-22T03:01:45;8.00;66.20
83289;DHT22;73193;50.866;5.420;2023-11-22T03:03:16;8.00;66.50
83289;DHT22;73193;50.866;5.420;2023-11-22T03:04:47;8.00;66.60
83289;DHT22;73193;50.866;5.420;2023-11-22T03:06:17;8.00;66.20
83289;DHT22;73193;50.866;5.420;2023-11-22T03:07:48;7.90;66.60
83289;DHT22;73193;50.866;5.420;2023-11-22T03:09:21;8.00;66.50
83289;DHT22;73193;50.866;5.420;2023-11-22T03:10:53;8.00;65.80
83289;DHT22;73193;50.866;5.420;2023-11-22T03:12:24;7.80;66.30
83289;DHT22;73193;50.866;5.420;2023-11-22T03:13:55;7.80;66.40
83289;DHT22;73193;50.866;5.420;2023-11-22T03:15:25;7.90;66.40
83289;DHT22;73193;50.866;5.420;2023-11-22T03:16:57;7.80;66.50
83289;DHT22;73193;50.866;5.420;2023-11-22T03:18:28;7.80;66.10
83289;DHT22;73193;50.866;5.420;2023-11-22T03:19:58;7.80;66.50
83289;DHT22;73193;50.866;5.420;2023-11-22T03:21:30;7.80;66.60
83289;DHT22;73193;50.866;5.420;2023-11-22T03:23:01;8.00;66.30
83289;DHT22;73193;50.866;5.420;2023-11-22T03:24:33;8.10;65.70
83289;DHT22;73193;50.866;5.420;2023-11-22T03:26:07;8.20;65.70
83289;DHT22;73193;50.866;5.420;2023-11-22T03:27:38;8.20;65.50
83289;DHT22;73193;50.866;5.420;2023-11-22T03:29:09;8.10;65.90
83289;DHT22;73193;50.866;5.420;2023-11-22T03:30:39;8.20;65.90
83289;DHT22;73193;50.866;5.420;2023-11-22T03:32:11;8.20;65.50
83289;DHT22;73193;50.866;5.420;2023-11-22T03:33:41;8.30;65.20
83289;DHT22;73193;50.866;5.420;2023-11-22T03:35:12;8.30;65.00
83289;DHT22;73193;50.866;5.420;2023-11-22T03:36:43;8.10;65.20
83289;DHT22;73193;50.866;5.420;2023-11-22T03:38:14;8.10;65.20
83289;DHT22;73193;50.866;5.420;2023-11-22T03:39:45;8.10;65.50
83289;DHT22;73193;50.866;5.420;2023-11-22T03:41:18;8.10;65.50
83289;DHT22;73193;50.866;5.420;2023-11-22T03:42:49;8.10;65.30
83289;DHT22;73193;50.866;5.420;2023-11-22T03:44:20;8.10;65.00
83289;DHT22;73193;50.866;5.420;2023-11-22T03:45:50;8.10;65.70
83289;DHT22;73193;50.866;5.420;2023-11-22T03:47:21;8.10;65.60
83289;DHT22;73193;50.866;5.420;2023-11-22T03:48:52;8.20;65.30
83289;DHT22;73193;50.866;5.420;2023-11-22T03:50:22;8.10;65.10
83289;DHT22;73193;50.866;5.420;2023-11-22T03:51:53;8.10;65.00
83289;DHT22;73193;50.866;5.420;2023-11-22T03:53:24;7.90;65.40
83289;DHT22;73193;50.866;5.420;2023-11-22T03:54:54;8.00;65.50
83289;DHT22;73193;50.866;5.420;2023-11-22T03:56:26;8.00;65.50
83289;DHT22;73193;50.866;5.420;2023-11-22T03:57:56;7.90;65.40
83289;DHT22;73193;50.866;5.420;2023-11-22T03:59:27;8.00;65.80
83289;DHT22;73193;50.866;5.420;2023-11-22T04:00:58;8.00;65.60
83289;DHT22;73193;50.866;5.420;2023-11-22T04:02:29;8.00;65.50
83289;DHT22;73193;50.866;5.420;2023-11-22T04:03:59;7.90;65.90
83289;DHT22;73193;50.866;5.420;2023-11-22T04:05:30;8.00;65.70
83289;DHT22;73193;50.866;5.420;2023-11-22T04:07:01;8.00;65.80
83289;DHT22;73193;50.866;5.420;2023-11-22T04:08:31;8.00;65.80
83289;DHT22;73193;50.866;5.420;2023-11-22T04:10:02;8.00;65.50
83289;DHT22;73193;50.866;5.420;2023-11-22T04:11:33;7.90;65.60
83289;DHT22;73193;50.866;5.420;2023-11-22T04:13:05;7.80;65.50
83289;DHT22;73193;50.866;5.420;2023-11-22T04:14:35;7.90;65.70
83289;DHT22;73193;50.866;5.420;2023-11-22T04:16:09;7.90;65.70
83289;DHT22;73193;50.866;5.420;2023-11-22T04:17:42;7.90;65.80
83289;DHT22;73193;50.866;5.420;2023-11-22T04:19:12;7.80;65.90
83289;DHT22;73193;50.866;5.420;2023-11-22T04:20:43;7.80;65.90
83289;DHT22;73193;50.866;5.420;2023-11-22T04:22:14;8.00;65.60
83289;DHT22;73193;50.866;5.420;2023-11-22T04:23:45;7.90;65.70
83289;DHT22;73193;50.866;5.420;2023-11-22T04:25:16;7.80;65.60
83289;DHT22;73193;50.866;5.420;2023-11-22T04:26:47;7.80;66.00
83289;DHT22;73193;50.866;5.420;2023-11-22T04:28:17;7.80;65.80
83289;DHT22;73193;50.866;5.420;2023-11-22T04:29:48;7.70;65.90
83289;DHT22;73193;50.866;5.420;2023-11-22T04:31:19;7.60;65.80
83289;DHT22;73193;50.866;5.420;2023-11-22T04:32:49;7.60;66.00
83289;DHT22;73193;50.866;5.420;2023-11-22T04:34:20;7.60;66.10
83289;DHT22;73193;50.866;5.420;2023-11-22T04:35:51;7.50;66.30
83289;DHT22;73193;50.866;5.420;2023-11-22T04:37:21;7.60;66.20
83289;DHT22;73193;50.866;5.420;2023-11-22T04:38:56;7.60;66.00
83289;DHT22;73193;50.866;5.420;2023-11-22T04:40:27;7.60;66.00
83289;DHT22;73193;50.866;5.420;2023-11-22T04:41:58;7.80;66.00
83289;DHT22;73193;50.866;5.420;2023-11-22T04:43:29;7.60;65.90
83289;DHT22;73193;50.866;5.420;2023-11-22T04:44:59;7.60;66.00
83289;DHT22;73193;50.866;5.420;2023-11-22T04:46:30;7.70;65.90
83289;DHT22;73193;50.866;5.420;2023-11-22T04:48:01;7.70;65.70
83289;DHT22;73193;50.866;5.420;2023-11-22T04:49:32;7.80;65.70
83289;DHT22;73193;50.866;5.420;2023-11-22T04:51:02;7.60;65.30
83289;DHT22;73193;50.866;5.420;2023-11-22T04:52:33;7.40;66.40
83289;DHT22;73193;50.866;5.420;2023-11-22T04:54:04;7.50;66.40
83289;DHT22;73193;50.866;5.420;2023-11-22T04:55:35;7.50;66.50
83289;DHT22;73193;50.866;5.420;2023-11-22T04:57:05;7.50;66.40
83289;DHT22;73193;50.866;5.420;2023-11-22T04:58:36;7.70;66.10
83289;DHT22;73193;50.866;5.420;2023-11-22T05:00:07;7.80;65.70
83289;DHT22;73193;50.866;5.420;2023-11-22T05:01:38;8.00;65.10
83289;DHT22;73193;50.866;5.420;2023-11-22T05:03:09;7.90;65.40
83289;DHT22;73193;50.866;5.420;2023-11-22T05:04:39;7.80;65.30
83289;DHT22;73193;50.866;5.420;2023-11-22T05:06:10;7.80;66.00
83289;DHT22;73193;50.866;5.420;2023-11-22T05:07:41;8.00;65.90
83289;DHT22;73193;50.866;5.420;2023-11-22T05:09:11;8.10;65.10
83289;DHT22;73193;50.866;5.420;2023-11-22T05:10:44;8.10;64.80
83289;DHT22;73193;50.866;5.420;2023-11-22T05:12:14;8.00;65.10
83289;DHT22;73193;50.866;5.420;2023-11-22T05:13:45;8.10;65.10
83289;DHT22;73193;50.866;5.420;2023-11-22T05:15:16;8.10;65.10
83289;DHT22;73193;50.866;5.420;2023-11-22T05:16:47;8.30;65.00
83289;DHT22;73193;50.866;5.420;2023-11-22T05:18:18;8.30;64.30
83289;DHT22;73193;50.866;5.420;2023-11-22T05:19:49;8.20;64.70
83289;DHT22;73193;50.866;5.420;2023-11-22T05:21:21;8.20;64.70
83289;DHT22;73193;50.866;5.420;2023-11-22T05:22:51;8.20;64.90
83289;DHT22;73193;50.866;5.420;2023-11-22T05:24:22;8.20;64.80
83289;DHT22;73193;50.866;5.420;2023-11-22T05:25:53;8.20;64.80
83289;DHT22;73193;50.866;5.420;2023-11-22T05:27:24;8.20;64.90
83289;DHT22;73193;50.866;5.420;2023-11-22T05:28:54;8.20;64.80
83289;DHT22;73193;50.866;5.420;2023-11-22T05:30:25;8.20;64.90
83289;DHT22;73193;50.866;5.420;2023-11-22T05:31:56;8.30;64.80
83289;DHT22;73193;50.866;5.420;2023-11-22T05:33:27;8.40;64.20
83289;DHT22;73193;50.866;5.420;2023-11-22T05:34:57;8.40;64.40
83289;DHT22;73193;50.866;5.420;2023-11-22T05:36:28;8.40;64.70
83289;DHT22;73193;50.866;5.420;2023-11-22T05:37:59;8.40;64.50
83289;DHT22;73193;50.866;5.420;2023-11-22T05:39:30;8.40;64.40
83289;DHT22;73193;50.866;5.420;2023-11-22T05:41:01;8.30;64.80
83289;DHT22;73193;50.866;5.420;2023-11-22T05:42:31;8.30;64.70
83289;DHT22;73193;50.866;5.420;2023-11-22T05:44:02;8.20;64.10
83289;DHT22;73193;50.866;5.420;2023-11-22T05:45:33;8.20;64.70
83289;DHT22;73193;50.866;5.420;2023-11-22T05:47:04;8.00;65.00
83289;DHT22;73193;50.866;5.420;2023-11-22T05:48:35;8.10;64.70
83289;DHT22;73193;50.866;5.420;2023-11-22T05:50:07;8.20;64.50
83289;DHT22;73193;50.866;5.420;2023-11-22T05:51:38;8.10;63.80
83289;DHT22;73193;50.866;5.420;2023-11-22T05:53:09;8.00;64.30
83289;DHT22;73193;50.866;5.420;2023-11-22T05:54:41;8.00;64.80
83289;DHT22;73193;50.866;5.420;2023-11-22T05:56:12;8.20;64.50
83289;DHT22;73193;50.866;5.420;2023-11-22T05:57:43;8.30;64.10
83289;DHT22;73193;50.866;5.420;2023-11-22T05:59:14;8.40;63.70
83289;DHT22;73193;50.866;5.420;2023-11-22T06:00:45;8.30;63.90
83289;DHT22;73193;50.866;5.420;2023-11-22T06:02:16;8.30;63.20
83289;DHT22;73193;50.866;5.420;2023-11-22T06:03:47;8.10;63.50
83289;DHT22;73193;50.866;5.420;2023-11-22T06:05:19;8.10;63.80
83289;DHT22;73193;50.866;5.420;2023-11-22T06:06:50;8.10;64.10
83289;DHT22;73193;50.866;5.420;2023-11-22T06:08:21;8.20;63.60
83289;DHT22;73193;50.866;5.420;2023-11-22T06:09:52;8.30;63.70
83289;DHT22;73193;50.866;5.420;2023-11-22T06:11:22;8.30;63.20
83289;DHT22;73193;50.866;5.420;2023-11-22T06:12:53;8.20;63.10
83289;DHT22;73193;50.866;5.420;2023-11-22T06:14:24;8.20;63.60
83289;DHT22;73193;50.866;5.420;2023-11-22T06:15:54;8.10;63.80
83289;DHT22;73193;50.866;5.420;2023-11-22T06:17:25;8.20;63.20
83289;DHT22;73193;50.866;5.420;2023-11-22T06:18:56;8.20;63.50
83289;DHT22;73193;50.866;5.420;2023-11-22T06:20:26;8.20;63.00
83289;DHT22;73193;50.866;5.420;2023-11-22T06:21:57;8.20;63.20
83289;DHT22;73193;50.866;5.420;2023-11-22T06:23:28;8.20;63.50
83289;DHT22;73193;50.866;5.420;2023-11-22T06:24:58;8.10;63.30
83289;DHT22;73193;50.866;5.420;2023-11-22T06:26:29;8.10;63.80
83289;DHT22;73193;50.866;5.420;2023-11-22T06:28:00;8.20;63.70
83289;DHT22;73193;50.866;5.420;2023-11-22T06:29:30;8.00;63.40
83289;DHT22;73193;50.866;5.420;2023-11-22T06:31:01;8.10;63.50
83289;DHT22;73193;50.866;5.420;2023-11-22T06:32:33;8.10;64.00
83289;DHT22;73193;50.866;5.420;2023-11-22T06:34:04;8.10;63.60
83289;DHT22;73193;50.866;5.420;2023-11-22T06:35:35;8.00;64.10
83289;DHT22;73193;50.866;5.420;2023-11-22T06:37:06;8.10;64.20
83289;DHT22;73193;50.866;5.420;2023-11-22T06:38:38;8.20;63.50
83289;DHT22;73193;50.866;5.420;2023-11-22T06:40:10;8.10;63.20
83289;DHT22;73193;50.866;5.420;2023-11-22T06:41:44;8.10;63.20
83289;DHT22;73193;50.866;5.420;2023-11-22T06:43:15;8.10;63.40
83289;DHT22;73193;50.866;5.420;2023-11-22T06:44:45;8.20;63.50
83289;DHT22;73193;50.866;5.420;2023-11-22T06:46:18;8.10;63.20
83289;DHT22;73193;50.866;5.420;2023-11-22T06:47:49;8.20;63.20
83289;DHT22;73193;50.866;5.420;2023-11-22T06:49:20;8.00;62.10
83289;DHT22;73193;50.866;5.420;2023-11-22T06:50:51;7.80;62.70
83289;DHT22;73193;50.866;5.420;2023-11-22T06:52:22;7.80;63.50
83289;DHT22;73193;50.866;5.420;2023-11-22T06:53:52;7.90;62.70
83289;DHT22;73193;50.866;5.420;2023-11-22T06:55:25;7.90;62.80
83289;DHT22;73193;50.866;5.420;2023-11-22T06:56:57;8.00;62.80
83289;DHT22;73193;50.866;5.420;2023-11-22T06:58:28;8.10;62.30
83289;DHT22;73193;50.866;5.420;2023-11-22T06:59:58;8.00;62.20
83289;DHT22;73193;50.866;5.420;2023-11-22T07:01:29;8.10;62.80
83289;DHT22;73193;50.866;5.420;2023-11-22T07:03:00;8.20;62.30
83289;DHT22;73193;50.866;5.420;2023-11-22T07:04:31;8.20;62.00
83289;DHT22;73193;50.866;5.420;2023-11-22T07:06:02;8.30;62.30
83289;DHT22;73193;50.866;5.420;2023-11-22T07:07:33;8.30;61.20
83289;DHT22;73193;50.866;5.420;2023-11-22T07:09:04;8.30;61.70
83289;DHT22;73193;50.866;5.420;2023-11-22T07:10:35;8.30;62.00
83289;DHT22;73193;50.866;5.420;2023-11-22T07:12:06;8.30;61.80
83289;DHT22;73193;50.866;5.420;2023-11-22T07:13:38;8.30;62.10
83289;DHT22;73193;50.866;5.420;2023-11-22T07:15:10;8.20;62.20
83289;DHT22;73193;50.866;5.420;2023-11-22T07:16:40;8.10;62.10
83289;DHT22;73193;50.866;5.420;2023-11-22T07:18:11;8.00;62.50
83289;DHT22;73193;50.866;5.420;2023-11-22T07:19:44;8.00;63.00
83289;DHT22;73193;50.866;5.420;2023-11-22T07:21:18;8.00;63.20
83289;DHT22;73193;50.866;5.420;2023-11-22T07:22:51;8.00;63.30
83289;DHT22;73193;50.866;5.420;2023-11-22T07:24:25;8.00;63.00
83289;DHT22;73193;50.866;5.420;2023-11-22T07:25:56;8.10;62.50
83289;DHT22;73193;50.866;5.420;2023-11-22T07:27:26;8.10;62.40
83289;DHT22;73193;50.866;5.420;2023-11-22T07:28:57;8.20;62.20
83289;DHT22;73193;50.866;5.420;2023-11-22T07:30:28;8.30;62.30
83289;DHT22;73193;50.866;5.420;2023-11-22T07:32:03;8.40;62.00
83289;DHT22;73193;50.866;5.420;2023-11-22T07:33:34;8.30;61.30
83289;DHT22;73193;50.866;5.420;2023-11-22T07:35:06;8.10;62.50
83289;DHT22;73193;50.866;5.420;2023-11-22T07:36:38;8.20;62.30
83289;DHT22;73193;50.866;5.420;2023-11-22T07:38:10;8.20;62.10
83289;DHT22;73193;50.866;5.420;2023-11-22T07:39:41;8.30;62.70
83289;DHT22;73193;50.866;5.420;2023-11-22T07:41:14;8.50;62.20
83289;DHT22;73193;50.866;5.420;2023-11-22T07:42:45;8.50;62.00
83289;DHT22;73193;50.866;5.420;2023-11-22T07:44:15;8.40;61.60
83289;DHT22;73193;50.866;5.420;2023-11-22T07:45:46;8.40;62.50
83289;DHT22;73193;50.866;5.420;2023-11-22T07:47:19;8.50;62.60
83289;DHT22;73193;50.866;5.420;2023-11-22T07:48:49;8.50;62.10
83289;DHT22;73193;50.866;5.420;2023-11-22T07:50:20;8.60;62.30
83289;DHT22;73193;50.866;5.420;2023-11-22T07:51:52;8.80;61.50
83289;DHT22;73193;50.866;5.420;2023-11-22T07:53:23;8.90;61.80
83289;DHT22;73193;50.866;5.420;2023-11-22T07:54:59;9.00;61.70
83289;DHT22;73193;50.866;5.420;2023-11-22T07:56:31;9.00;61.70
83289;DHT22;73193;50.866;5.420;2023-11-22T07:58:03;9.00;61.20
83289;DHT22;73193;50.866;5.420;2023-11-22T07:59:33;9.00;61.60
83289;DHT22;73193;50.866;5.420;2023-11-22T08:01:04;9.20;61.40
83289;DHT22;73193;50.866;5.420;2023-11-22T08:02:35;9.30;61.10
83289;DHT22;73193;50.866;5.420;2023-11-22T08:04:09;9.40;60.80
83289;DHT22;73193;50.866;5.420;2023-11-22T08:05:40;9.40;61.10
83289;DHT22;73193;50.866;5.420;2023-11-22T08:07:11;9.50;59.80
83289;DHT22;73193;50.866;5.420;2023-11-22T08:08:45;9.40;60.70
83289;DHT22;73193;50.866;5.420;2023-11-22T08:10:16;9.40;61.50
83289;DHT22;73193;50.866;5.420;2023-11-22T08:11:49;9.30;61.50
83289;DHT22;73193;50.866;5.420;2023-11-22T08:13:20;9.40;61.00
83289;DHT22;73193;50.866;5.420;2023-11-22T08:14:53;9.30;61.20
83289;DHT22;73193;50.866;5.420;2023-11-22T08:16:26;9.40;60.70
83289;DHT22;73193;50.866;5.420;2023-11-22T08:17:58;9.50;60.40
83289;DHT22;73193;50.866;5.420;2023-11-22T08:19:30;9.60;60.30
83289;DHT22;73193;50.866;5.420;2023-11-22T08:21:01;9.40;59.00
83289;DHT22;73193;50.866;5.420;2023-11-22T08:22:32;9.30;59.20
83289;DHT22;73193;50.866;5.420;2023-11-22T08:24:06;9.20;59.90
83289;DHT22;73193;50.866;5.420;2023-11-22T08:25:36;8.80;60.70
83289;DHT22;73193;50.866;5.420;2023-11-22T08:27:08;9.00;61.30
83289;DHT22;73193;50.866;5.420;2023-11-22T08:28:41;9.00;61.40
83289;DHT22;73193;50.866;5.420;2023-11-22T08:30:12;9.00;61.20
83289;DHT22;73193;50.866;5.420;2023-11-22T08:31:45;9.00;61.00
83289;DHT22;73193;50.866;5.420;2023-11-22T08:33:16;9.20;60.70
83289;DHT22;73193;50.866;5.420;2023-11-22T08:34:47;9.40;59.30
83289;DHT22;73193;50.866;5.420;2023-11-22T08:36:17;9.30;59.70
83289;DHT22;73193;50.866;5.420;2023-11-22T08:37:49;9.20;59.90
83289;DHT22;73193;50.866;5.420;2023-11-22T08:39:21;9.40;60.10
83289;DHT22;73193;50.866;5.420;2023-11-22T08:40:52;9.40;60.50
83289;DHT22;73193;50.866;5.420;2023-11-22T08:42:22;9.40;59.10
83289;DHT22;73193;50.866;5.420;2023-11-22T08:43:53;9.40;59.70
83289;DHT22;73193;50.866;5.420;2023-11-22T08:45:24;9.40;59.50
83289;DHT22;73193;50.866;5.420;2023-11-22T08:46:55;9.40;59.50
83289;DHT22;73193;50.866;5.420;2023-11-22T08:48:26;9.00;59.70
83289;DHT22;73193;50.866;5.420;2023-11-22T08:49:56;8.80;60.30
83289;DHT22;73193;50.866;5.420;2023-11-22T08:51:29;8.70;61.20
83289;DHT22;73193;50.866;5.420;2023-11-22T08:52:59;8.90;61.10
83289;DHT22;73193;50.866;5.420;2023-11-22T08:54:31;8.90;60.50
83289;DHT22;73193;50.866;5.420;2023-11-22T08:56:01;9.10;60.50
83289;DHT22;73193;50.866;5.420;2023-11-22T08:57:36;9.30;61.00
83289;DHT22;73193;50.866;5.420;2023-11-22T08:59:07;9.50;60.10
83289;DHT22;73193;50.866;5.420;2023-11-22T09:00:38;9.60;60.70
83289;DHT22;73193;50.866;5.420;2023-11-22T09:02:09;9.80;59.10
83289;DHT22;73193;50.866;5.420;2023-11-22T09:03:43;9.70;59.70
83289;DHT22;73193;50.866;5.420;2023-11-22T09:05:14;9.80;59.50
83289;DHT22;73193;50.866;5.420;2023-11-22T09:06:47;9.50;59.90
83289;DHT22;73193;50.866;5.420;2023-11-22T09:08:17;9.60;60.20
83289;DHT22;73193;50.866;5.420;2023-11-22T09:09:49;9.80;59.70
83289;DHT22;73193;50.866;5.420;2023-11-22T09:11:21;10.00;59.50
83289;DHT22;73193;50.866;5.420;2023-11-22T09:12:53;10.10;59.70
83289;DHT22;73193;50.866;5.420;2023-11-22T09:14:23;10.10;60.00
83289;DHT22;73193;50.866;5.420;2023-11-22T09:15:54;10.20;59.30
83289;DHT22;73193;50.866;5.420;2023-11-22T09:17:25;10.20;59.60
83289;DHT22;73193;50.866;5.420;2023-11-22T09:18:55;10.20;58.30
83289;DHT22;73193;50.866;5.420;2023-11-22T09:20:28;10.00;58.70
83289;DHT22;73193;50.866;5.420;2023-11-22T09:21:58;10.00;58.50
83289;DHT22;73193;50.866;5.420;2023-11-22T09:23:30;9.60;58.70
83289;DHT22;73193;50.866;5.420;2023-11-22T09:25:00;9.50;59.90
83289;DHT22;73193;50.866;5.420;2023-11-22T09:26:31;9.60;59.80
83289;DHT22;73193;50.866;5.420;2023-11-22T09:28:02;9.70;59.60
83289;DHT22;73193;50.866;5.420;2023-11-22T09:29:34;9.80;58.60
83289;DHT22;73193;50.866;5.420;2023-11-22T09:31:04;9.80;59.30
83289;DHT22;73193;50.866;5.420;2023-11-22T09:32:38;9.80;58.70
83289;DHT22;73193;50.866;5.420;2023-11-22T09:34:09;9.80;59.30
83289;DHT22;73193;50.866;5.420;2023-11-22T09:35:42;9.70;59.40
83289;DHT22;73193;50.866;5.420;2023-11-22T09:37:14;9.70;60.10
83289;DHT22;73193;50.866;5.420;2023-11-22T09:38:45;9.70;59.40
83289;DHT22;73193;50.866;5.420;2023-11-22T09:40:17;9.80;59.60
83289;DHT22;73193;50.866;5.420;2023-11-22T09:41:48;9.70;60.10
83289;DHT22;73193;50.866;5.420;2023-11-22T09:43:19;10.00;60.10
83289;DHT22;73193;50.866;5.420;2023-11-22T09:44:50;10.10;59.40